Terminal Aerodrome Forecast
Issued by NWS Grand Forks, ND

Home | Current Version | Previous Version | Graphics & Text | Print | Product List | Glossary On
Versions: 1 2 3 4 5 6 7 8 9 10 11 12 13 14 15 16 17 18 19 20 21 22 23 24 25 26 27
000
FTUS43 KFGF 241739
TAFGFK
TAF
KGFK 241739Z 2418/2518 06011KT P6SM OVC035
      TEMPO 2418/2420 4SM -RA OVC015
     FM242100 36011KT P6SM OVC008
     FM242300 34016G24KT P6SM OVC008=

USA.gov is the U.S. government's official web portal to all federal, state and local government web resources and services.